createdAt,value
2023-04-02T00:01:19.975Z,3.60
2023-04-02T00:03:53.726Z,3.60
2023-04-02T00:06:39.986Z,3.60
2023-04-02T00:09:15.394Z,3.60
2023-04-02T00:11:48.605Z,3.60
2023-04-02T00:14:45.640Z,3.60
2023-04-02T00:17:12.324Z,3.60
2023-04-02T00:19:52.738Z,3.60
2023-04-02T00:22:24.779Z,3.60
2023-04-02T00:24:54.366Z,3.60
2023-04-02T00:27:21.994Z,3.60
2023-04-02T00:29:57.198Z,3.60
2023-04-02T00:32:30.964Z,3.60
2023-04-02T00:34:59.086Z,3.60
2023-04-02T00:37:28.775Z,3.70
2023-04-02T00:40:07.175Z,3.60
2023-04-02T00:42:35.955Z,3.60
2023-04-02T00:45:04.208Z,3.60
2023-04-02T00:47:37.159Z,3.60
2023-04-02T00:50:42.461Z,3.60
2023-04-02T00:53:16.097Z,3.70
2023-04-02T00:55:43.778Z,3.70
2023-04-02T00:58:22.049Z,3.60
2023-04-02T01:00:52.691Z,3.60
2023-04-02T01:03:19.513Z,3.70
2023-04-02T01:06:10.555Z,3.60
2023-04-02T01:08:47.631Z,3.60
2023-04-02T01:11:47.697Z,3.50
2023-04-02T01:14:38.983Z,3.50
2023-04-02T01:17:26.473Z,3.50
2023-04-02T01:20:26.561Z,3.50
2023-04-02T01:23:10.466Z,3.50
2023-04-02T01:26:08.890Z,3.50
2023-04-02T01:28:48.453Z,3.50
2023-04-02T01:31:16.108Z,3.40
2023-04-02T01:33:42.989Z,3.40
2023-04-02T01:36:45.019Z,3.40
2023-04-02T01:39:45.464Z,3.40
2023-04-02T01:42:26.230Z,3.30
2023-04-02T01:44:59.801Z,3.30
2023-04-02T01:47:28.974Z,3.30
2023-04-02T01:50:14.698Z,3.30
2023-04-02T01:52:44.028Z,3.30
2023-04-02T01:55:13.381Z,3.20
2023-04-02T01:57:47.345Z,3.20
2023-04-02T02:00:16.838Z,3.20
2023-04-02T02:02:48.763Z,3.20
2023-04-02T02:05:18.299Z,3.20
2023-04-02T02:07:45.537Z,3.20
2023-04-02T02:10:18.386Z,3.20
2023-04-02T02:12:48.046Z,3.20
2023-04-02T02:15:17.219Z,3.10
2023-04-02T02:17:44.871Z,3.10
2023-04-02T02:20:13.298Z,3.10
2023-04-02T02:22:44.528Z,3.10
2023-04-02T02:25:18.811Z,3.10
2023-04-02T02:27:55.054Z,3.10
2023-04-02T02:30:28.857Z,3.10
2023-04-02T02:33:22.248Z,3.10
2023-04-02T02:35:52.930Z,3.10
2023-04-02T02:38:50.448Z,3.20
2023-04-02T02:41:30.646Z,3.10
2023-04-02T02:44:00.279Z,3.20
2023-04-02T02:46:28.700Z,3.20
2023-04-02T02:48:57.450Z,3.20
2023-04-02T02:51:29.978Z,3.20
2023-04-02T02:54:03.064Z,3.20
2023-04-02T02:56:32.414Z,3.20
2023-04-02T02:59:00.317Z,3.20
2023-04-02T03:01:29.453Z,3.20
2023-04-02T03:03:56.488Z,3.20
2023-04-02T03:06:23.969Z,3.20
2023-04-02T03:09:21.732Z,3.10
2023-04-02T03:12:25.842Z,3.10
2023-04-02T03:15:27.421Z,3.10
2023-04-02T03:18:00.493Z,3.10
2023-04-02T03:20:43.789Z,3.20
2023-04-02T03:23:19.172Z,3.20
2023-04-02T03:25:59.267Z,3.20
2023-04-02T03:28:38.151Z,3.20
2023-04-02T03:31:19.903Z,3.20
2023-04-02T03:33:52.980Z,3.10
2023-04-02T03:36:31.788Z,3.10
2023-04-02T03:39:17.026Z,3.10
2023-04-02T03:41:53.331Z,3.10
2023-04-02T03:44:36.657Z,3.10
2023-04-02T03:47:34.661Z,3.10
2023-04-02T03:50:17.779Z,3.20
2023-04-02T03:52:45.502Z,3.20
2023-04-02T03:55:23.747Z,3.10
2023-04-02T03:58:17.477Z,3.20
2023-04-02T04:01:03.098Z,3.10
2023-04-02T04:03:46.661Z,3.10
2023-04-02T04:06:23.463Z,3.20
2023-04-02T04:08:59.651Z,3.10
2023-04-02T04:11:32.416Z,3.20
2023-04-02T04:14:27.526Z,3.20
2023-04-02T04:17:09.451Z,3.20
2023-04-02T04:19:51.921Z,3.30
2023-04-02T04:22:30.309Z,3.30
2023-04-02T04:25:03.900Z,3.20
2023-04-02T04:27:44.934Z,3.30
2023-04-02T04:30:30.286Z,3.20
2023-04-02T04:33:05.689Z,3.20
2023-04-02T04:35:40.378Z,3.20
2023-04-02T04:38:33.114Z,3.30
2023-04-02T04:41:04.615Z,3.30
2023-04-02T04:43:46.528Z,3.30
2023-04-02T04:46:18.869Z,3.30
2023-04-02T04:48:58.002Z,3.30
2023-04-02T04:51:33.590Z,3.30
2023-04-02T04:54:01.034Z,3.30
2023-04-02T04:56:30.931Z,3.40
2023-04-02T04:59:13.584Z,3.40
2023-04-02T05:01:51.094Z,3.40
2023-04-02T05:04:33.493Z,3.40
2023-04-02T05:07:16.514Z,3.40
2023-04-02T05:09:52.520Z,3.40
2023-04-02T05:12:22.297Z,3.40
2023-04-02T05:14:58.096Z,3.40
2023-04-02T05:17:31.885Z,3.40
2023-04-02T05:20:09.567Z,3.40
2023-04-02T05:23:02.981Z,3.30
2023-04-02T05:25:31.747Z,3.30
2023-04-02T05:28:15.707Z,3.40
2023-04-02T05:30:57.596Z,3.40
2023-04-02T05:33:29.542Z,3.40
2023-04-02T05:36:05.745Z,3.40
2023-04-02T05:38:36.524Z,3.40
2023-04-02T05:41:06.064Z,3.40
2023-04-02T05:43:37.116Z,3.40
2023-04-02T05:46:18.960Z,3.40
2023-04-02T05:48:51.174Z,3.40
2023-04-02T05:51:24.142Z,3.40
2023-04-02T05:53:56.794Z,3.50
2023-04-02T05:56:32.580Z,3.50
2023-04-02T05:59:08.487Z,3.50
2023-04-02T06:01:45.586Z,3.50
2023-04-02T06:04:31.108Z,3.50
2023-04-02T06:07:11.441Z,3.50
2023-04-02T06:09:47.548Z,3.60
2023-04-02T06:12:25.128Z,3.70
2023-04-02T06:14:52.257Z,3.80
2023-04-02T06:17:20.341Z,3.80
2023-04-02T06:19:48.005Z,3.70
2023-04-02T06:22:35.672Z,3.70
2023-04-02T06:25:24.102Z,3.70
2023-04-02T06:27:53.287Z,3.70
2023-04-02T06:30:25.761Z,3.70
2023-04-02T06:32:52.466Z,3.80
2023-04-02T06:35:19.567Z,3.80
2023-04-02T06:37:49.729Z,3.80
2023-04-02T06:40:31.479Z,3.80
2023-04-02T06:43:02.044Z,3.80
2023-04-02T06:45:32.295Z,3.80
2023-04-02T06:48:01.163Z,3.80
2023-04-02T06:50:43.883Z,3.90
2023-04-02T06:53:21.507Z,3.90
2023-04-02T06:55:52.792Z,3.90
2023-04-02T06:58:20.113Z,3.90
2023-04-02T07:00:50.980Z,4.00
2023-04-02T07:03:24.621Z,4.00
2023-04-02T07:05:51.340Z,4.00
2023-04-02T07:08:18.003Z,4.00
2023-04-02T07:10:44.918Z,4.10
2023-04-02T07:13:20.600Z,4.20
2023-04-02T07:15:50.784Z,4.30
2023-04-02T07:18:27.308Z,4.40
2023-04-02T07:20:54.521Z,4.30
2023-04-02T07:23:21.241Z,4.30
2023-04-02T07:25:49.267Z,4.30
2023-04-02T07:28:16.751Z,4.40
2023-04-02T07:30:45.576Z,4.50
2023-04-02T07:33:17.073Z,4.50
2023-04-02T07:35:44.495Z,4.50
2023-04-02T07:38:11.367Z,4.60
2023-04-02T07:40:38.046Z,4.60
2023-04-02T07:43:05.850Z,4.60
2023-04-02T07:45:32.712Z,4.70
2023-04-02T07:48:08.972Z,4.80
2023-04-02T07:50:36.043Z,4.70
2023-04-02T07:53:02.934Z,4.70
2023-04-02T07:55:29.542Z,4.80
2023-04-02T07:57:58.298Z,4.60
2023-04-02T08:00:27.024Z,4.70
2023-04-02T08:02:53.925Z,4.60
2023-04-02T08:05:20.854Z,4.60
2023-04-02T08:07:57.363Z,4.60
2023-04-02T08:10:24.687Z,4.80
2023-04-02T08:12:51.817Z,5.10
2023-04-02T08:15:18.772Z,5.40
2023-04-02T08:17:46.192Z,5.50
2023-04-02T08:20:19.298Z,5.60
2023-04-02T08:22:47.197Z,5.60
2023-04-02T08:25:14.542Z,5.50
2023-04-02T08:27:41.611Z,5.60
2023-04-02T08:30:09.814Z,5.60
2023-04-02T08:32:36.572Z,5.60
2023-04-02T08:35:03.437Z,5.60
2023-04-02T08:37:30.101Z,5.60
2023-04-02T08:39:56.796Z,5.60
2023-04-02T08:42:34.786Z,5.40
2023-04-02T08:45:24.229Z,5.40
2023-04-02T08:47:55.438Z,5.40
2023-04-02T08:50:33.253Z,5.30
2023-04-02T08:53:02.435Z,5.50
2023-04-02T08:55:48.513Z,5.50
2023-04-02T08:58:32.934Z,5.70
2023-04-02T09:01:02.507Z,5.80
2023-04-02T09:03:42.787Z,5.90
2023-04-02T09:06:14.781Z,6.00
2023-04-02T09:08:44.762Z,6.20
2023-04-02T09:11:26.013Z,6.20
2023-04-02T09:13:58.582Z,6.10
2023-04-02T09:16:40.378Z,6.00
2023-04-02T09:19:38.699Z,6.10
2023-04-02T09:22:09.800Z,6.20
2023-04-02T09:24:37.768Z,6.20
2023-04-02T09:27:04.831Z,6.40
2023-04-02T09:29:45.756Z,6.40
2023-04-02T09:32:46.452Z,6.50
2023-04-02T09:35:25.260Z,6.40
2023-04-02T09:38:11.544Z,6.40
2023-04-02T09:40:50.581Z,6.30
2023-04-02T09:43:23.137Z,6.30
2023-04-02T09:46:17.707Z,6.20
2023-04-02T09:48:55.692Z,6.30
2023-04-02T09:51:24.755Z,6.50
2023-04-02T09:54:03.669Z,6.70
2023-04-02T09:56:38.971Z,6.80
2023-04-02T09:59:21.936Z,7.00
2023-04-02T10:01:54.734Z,7.00
2023-04-02T10:04:38.807Z,7.20
2023-04-02T10:07:06.953Z,7.30
2023-04-02T10:09:38.489Z,7.10
2023-04-02T10:12:11.293Z,7.30
2023-04-02T10:14:43.419Z,7.20
2023-04-02T10:17:14.299Z,7.20
2023-04-02T10:19:48.817Z,7.20
2023-04-02T10:22:18.987Z,7.30
2023-04-02T10:24:46.191Z,7.50
2023-04-02T10:27:33.848Z,7.50
2023-04-02T10:30:33.735Z,7.30
2023-04-02T10:33:05.775Z,7.20
2023-04-02T10:35:54.627Z,7.10
2023-04-02T10:38:32.918Z,7.30
2023-04-02T10:41:06.529Z,7.30
2023-04-02T10:43:45.975Z,7.50
2023-04-02T10:46:40.137Z,7.70
2023-04-02T10:49:24.973Z,7.80
2023-04-02T10:52:00.163Z,7.70
2023-04-02T10:54:49.115Z,7.70
2023-04-02T10:57:38.861Z,7.50
2023-04-02T11:00:17.368Z,7.60
2023-04-02T11:02:56.821Z,7.60
2023-04-02T11:05:44.142Z,7.40
2023-04-02T11:08:17.101Z,7.50
2023-04-02T11:10:58.639Z,7.60
2023-04-02T11:13:41.269Z,7.50
2023-04-02T11:16:08.077Z,7.20
2023-04-02T11:18:37.153Z,7.00
2023-04-02T11:21:28.194Z,7.00
2023-04-02T11:23:59.658Z,7.20
2023-04-02T11:26:47.448Z,7.30
2023-04-02T11:29:16.754Z,7.20
2023-04-02T11:31:44.871Z,7.40
2023-04-02T11:34:40.666Z,7.40
2023-04-02T11:37:29.765Z,7.40
2023-04-02T11:39:58.300Z,7.20
2023-04-02T11:42:31.052Z,7.20
2023-04-02T11:45:21.176Z,7.20
2023-04-02T11:48:08.463Z,7.10
2023-04-02T11:50:42.887Z,7.40
2023-04-02T11:53:13.055Z,7.30
2023-04-02T11:55:41.440Z,7.40
2023-04-02T11:58:38.630Z,7.60
2023-04-02T12:01:32.146Z,7.90
2023-04-02T12:04:36.529Z,8.20
2023-04-02T12:07:27.937Z,8.20
2023-04-02T12:09:58.009Z,8.30
2023-04-02T12:12:26.508Z,8.10
2023-04-02T12:14:58.362Z,8.00
2023-04-02T12:17:28.289Z,8.00
2023-04-02T12:20:21.702Z,7.90
2023-04-02T12:22:54.539Z,7.90
2023-04-02T12:25:21.942Z,8.10
2023-04-02T12:27:48.921Z,8.20
2023-04-02T12:30:21.243Z,8.30
2023-04-02T12:32:48.667Z,8.30
2023-04-02T12:35:34.390Z,8.40
2023-04-02T12:38:01.675Z,8.50
2023-04-02T12:40:28.725Z,8.50
2023-04-02T12:42:55.454Z,8.60
2023-04-02T12:45:29.775Z,8.70
2023-04-02T12:47:59.329Z,9.00
2023-04-02T12:50:26.412Z,9.30
2023-04-02T12:52:55.534Z,9.80
2023-04-02T12:55:25.437Z,10.10
2023-04-02T12:57:59.629Z,10.20
2023-04-02T13:00:29.826Z,10.10
2023-04-02T13:03:15.476Z,9.80
2023-04-02T13:05:49.737Z,9.70
2023-04-02T13:08:20.095Z,9.90
2023-04-02T13:10:56.583Z,10.60
2023-04-02T13:13:36.501Z,11.20
2023-04-02T13:16:28.175Z,11.20
2023-04-02T13:19:12.245Z,11.10
2023-04-02T13:21:38.879Z,10.20
2023-04-02T13:24:15.773Z,10.20
2023-04-02T13:26:43.382Z,10.20
2023-04-02T13:29:29.137Z,9.90
2023-04-02T13:32:11.908Z,9.70
2023-04-02T13:34:38.575Z,9.60
2023-04-02T13:37:05.325Z,9.90
2023-04-02T13:39:32.074Z,10.20
2023-04-02T13:42:01.689Z,10.30
2023-04-02T13:44:31.223Z,10.10
2023-04-02T13:46:59.275Z,9.90
2023-04-02T13:49:26.437Z,9.80
2023-04-02T13:51:58.847Z,9.70
2023-04-02T13:54:43.053Z,9.20
2023-04-02T13:57:10.765Z,9.20
2023-04-02T13:59:37.660Z,9.10
2023-04-02T14:02:10.600Z,9.10
2023-04-02T14:04:53.144Z,9.10
2023-04-02T14:07:57.992Z,9.20
2023-04-02T14:10:52.105Z,9.00
2023-04-02T14:13:39.809Z,8.80
2023-04-02T14:16:35.536Z,9.00
2023-04-02T14:19:31.241Z,9.60
2023-04-02T14:22:19.710Z,10.70
2023-04-02T14:25:01.166Z,11.40
2023-04-02T14:27:40.966Z,10.60
2023-04-02T14:30:32.639Z,10.40
2023-04-02T14:33:37.428Z,10.00
2023-04-02T14:36:24.437Z,9.70
2023-04-02T14:39:02.952Z,9.40
2023-04-02T14:41:45.583Z,9.30
2023-04-02T14:44:12.983Z,9.10
2023-04-02T14:46:39.734Z,9.00
2023-04-02T14:49:09.119Z,8.80
2023-04-02T14:51:47.338Z,9.20
2023-04-02T14:54:32.168Z,9.80
2023-04-02T14:57:12.237Z,9.70
2023-04-02T15:00:00.623Z,9.60
2023-04-02T15:02:41.226Z,9.30
2023-04-02T15:05:21.303Z,9.20
2023-04-02T15:08:20.834Z,9.50
2023-04-02T15:10:56.548Z,9.60
2023-04-02T15:13:33.222Z,9.50
2023-04-02T15:16:19.224Z,9.30
2023-04-02T15:18:50.542Z,9.30
2023-04-02T15:21:20.246Z,9.00
2023-04-02T15:24:02.510Z,8.80
2023-04-02T15:26:41.643Z,8.40
2023-04-02T15:29:42.855Z,8.40
2023-04-02T15:32:39.880Z,8.50
2023-04-02T15:35:14.722Z,8.50
2023-04-02T15:37:55.619Z,8.50
2023-04-02T15:40:35.888Z,8.60
2023-04-02T15:43:19.888Z,8.50
2023-04-02T15:46:05.326Z,8.30
2023-04-02T15:49:01.408Z,8.20
2023-04-02T15:51:54.749Z,8.30
2023-04-02T15:54:46.745Z,8.80
2023-04-02T15:57:19.633Z,9.30
2023-04-02T15:59:49.377Z,9.60
2023-04-02T16:02:37.405Z,10.00
2023-04-02T16:05:18.600Z,10.20
2023-04-02T16:07:54.313Z,10.50
2023-04-02T16:10:43.017Z,10.60
2023-04-02T16:13:32.260Z,10.20
2023-04-02T16:16:14.363Z,10.10
2023-04-02T16:19:16.753Z,9.90
2023-04-02T16:21:50.361Z,9.70
2023-04-02T16:24:17.228Z,9.20
2023-04-02T16:27:24.452Z,8.90
2023-04-02T16:30:28.638Z,9.10
2023-04-02T16:33:23.027Z,9.30
2023-04-02T16:36:09.233Z,9.00
2023-04-02T16:38:57.079Z,8.90
2023-04-02T16:41:47.823Z,8.70
2023-04-02T16:44:28.900Z,8.60
2023-04-02T16:47:14.412Z,8.50
2023-04-02T16:49:57.589Z,8.30
2023-04-02T16:52:48.796Z,8.40
2023-04-02T16:55:39.871Z,8.50
2023-04-02T16:58:34.594Z,8.40
2023-04-02T17:01:18.903Z,8.40
2023-04-02T17:03:57.949Z,8.30
2023-04-02T17:07:00.282Z,8.10
2023-04-02T17:09:36.740Z,7.90
2023-04-02T17:12:10.658Z,7.90
2023-04-02T17:14:57.458Z,7.80
2023-04-02T17:17:24.444Z,7.60
2023-04-02T17:19:56.441Z,7.60
2023-04-02T17:22:23.688Z,7.30
2023-04-02T17:25:02.867Z,7.10
2023-04-02T17:27:37.452Z,6.90
2023-04-02T17:30:14.021Z,6.70
2023-04-02T17:32:40.692Z,6.60
2023-04-02T17:35:25.414Z,6.50
2023-04-02T17:38:02.667Z,6.40
2023-04-02T17:40:48.913Z,6.20
2023-04-02T17:43:37.410Z,6.10
2023-04-02T17:46:32.213Z,6.00
2023-04-02T17:49:08.690Z,6.00
2023-04-02T17:51:48.967Z,5.90
2023-04-02T17:54:39.188Z,5.80
2023-04-02T17:57:05.852Z,5.70
2023-04-02T18:00:30.528Z,5.60
2023-04-02T18:03:16.673Z,5.60
2023-04-02T18:05:47.901Z,5.50
2023-04-02T18:08:44.403Z,5.40
2023-04-02T18:11:24.986Z,5.30
2023-04-02T18:13:59.758Z,5.20
2023-04-02T18:16:37.555Z,5.20
2023-04-02T18:19:18.276Z,5.10
2023-04-02T18:22:12.560Z,5.10
2023-04-02T18:25:12.565Z,5.00
2023-04-02T18:28:07.533Z,4.90
2023-04-02T18:30:42.062Z,4.90
2023-04-02T18:33:29.679Z,4.80
2023-04-02T18:36:05.508Z,4.70
2023-04-02T18:38:47.328Z,4.70
2023-04-02T18:41:51.077Z,4.60
2023-04-02T18:44:42.926Z,4.60
2023-04-02T18:47:32.731Z,4.50
2023-04-02T18:50:15.876Z,4.50
2023-04-02T18:52:45.957Z,4.40
2023-04-02T18:55:20.772Z,4.40
2023-04-02T18:57:51.437Z,4.30
2023-04-02T19:00:29.593Z,4.30
2023-04-02T19:03:11.673Z,4.20
2023-04-02T19:05:59.145Z,4.20
2023-04-02T19:08:39.188Z,4.10
2023-04-02T19:11:12.742Z,4.10
2023-04-02T19:13:39.501Z,4.00
2023-04-02T19:16:25.030Z,4.00
2023-04-02T19:19:19.008Z,3.90
2023-04-02T19:22:08.015Z,3.90
2023-04-02T19:25:03.395Z,3.80
2023-04-02T19:27:53.947Z,3.90
2023-04-02T19:30:34.253Z,3.80
2023-04-02T19:33:19.477Z,3.70
2023-04-02T19:35:59.300Z,3.70
2023-04-02T19:38:44.971Z,3.70
2023-04-02T19:41:29.351Z,3.60
2023-04-02T19:43:56.512Z,3.50
2023-04-02T19:46:25.349Z,3.60
2023-04-02T19:49:22.623Z,3.50
2023-04-02T19:51:50.140Z,3.50
2023-04-02T19:54:16.780Z,3.40
2023-04-02T19:56:43.921Z,3.40
2023-04-02T20:01:43.822Z,3.40
2023-04-02T20:04:10.622Z,3.30
2023-04-02T20:06:37.635Z,3.20
2023-04-02T20:09:04.337Z,3.20
2023-04-02T20:11:31.331Z,3.20
2023-04-02T20:13:58.166Z,3.10
2023-04-02T20:16:24.918Z,3.10
2023-04-02T20:18:52.006Z,3.10
2023-04-02T20:21:19.328Z,3.00
2023-04-02T20:23:46.361Z,3.00
2023-04-02T20:26:13.233Z,3.00
2023-04-02T20:28:40.608Z,2.90
2023-04-02T20:31:12.186Z,2.80
2023-04-02T20:33:39.392Z,2.80
2023-04-02T20:36:09.277Z,2.80
2023-04-02T20:38:37.060Z,2.70
2023-04-02T20:41:05.777Z,2.70
2023-04-02T20:43:32.462Z,2.80
2023-04-02T20:46:01.501Z,2.70
2023-04-02T20:48:32.234Z,2.60
2023-04-02T20:51:00.069Z,2.60
2023-04-02T20:53:29.529Z,2.60
2023-04-02T20:56:10.873Z,2.50
2023-04-02T20:58:39.023Z,2.50
2023-04-02T21:01:26.465Z,2.50
2023-04-02T21:03:58.814Z,2.40
2023-04-02T21:06:29.588Z,2.40
2023-04-02T21:08:56.309Z,2.30
2023-04-02T21:11:23.985Z,2.30
2023-04-02T21:13:51.173Z,2.30
2023-04-02T21:16:20.217Z,2.20
2023-04-02T21:18:49.217Z,2.30
2023-04-02T21:21:16.548Z,2.20
2023-04-02T21:23:44.737Z,2.20
2023-04-02T21:26:14.737Z,2.20
2023-04-02T21:28:41.985Z,2.20
2023-04-02T21:31:12.055Z,2.20
2023-04-02T21:33:41.967Z,2.10
2023-04-02T21:36:29.052Z,2.10
2023-04-02T21:39:02.365Z,2.20
2023-04-02T21:41:34.701Z,2.10
2023-04-02T21:44:03.217Z,2.10
2023-04-02T21:46:33.455Z,2.00
2023-04-02T21:49:00.431Z,2.00
2023-04-02T21:51:29.690Z,2.00
2023-04-02T21:53:57.079Z,1.90
2023-04-02T21:56:26.549Z,2.00
2023-04-02T21:58:53.622Z,2.00
2023-04-02T22:01:27.488Z,1.90
2023-04-02T22:03:56.144Z,1.90
2023-04-02T22:06:24.763Z,1.90
2023-04-02T22:09:00.650Z,1.90
2023-04-02T22:11:30.598Z,1.90
2023-04-02T22:13:57.550Z,1.80
2023-04-02T22:16:26.729Z,1.90
2023-04-02T22:18:55.727Z,1.80
2023-04-02T22:21:22.908Z,1.80
2023-04-02T22:23:50.874Z,1.80
2023-04-02T22:26:19.337Z,1.80
2023-04-02T22:28:46.345Z,1.80
2023-04-02T22:31:19.419Z,1.70
2023-04-02T22:33:47.202Z,1.80
2023-04-02T22:36:15.829Z,1.70
2023-04-02T22:38:42.991Z,1.70
2023-04-02T22:41:18.276Z,1.70
2023-04-02T22:43:45.890Z,1.60
2023-04-02T22:46:14.740Z,1.60
2023-04-02T22:48:42.353Z,1.50
2023-04-02T22:51:10.981Z,1.50
2023-04-02T22:53:38.616Z,1.40
2023-04-02T22:56:35.472Z,1.40
2023-04-02T22:59:02.224Z,1.40
2023-04-02T23:01:31.953Z,1.50
2023-04-02T23:03:59.208Z,1.40
2023-04-02T23:06:26.382Z,1.40
2023-04-02T23:08:53.334Z,1.40
2023-04-02T23:11:28.170Z,1.40
2023-04-02T23:13:56.931Z,1.40
2023-04-02T23:16:24.416Z,1.40
2023-04-02T23:18:51.109Z,1.40
2023-04-02T23:21:19.026Z,1.40
2023-04-02T23:23:46.972Z,1.40
2023-04-02T23:26:17.841Z,1.40
2023-04-02T23:28:45.293Z,1.40
2023-04-02T23:31:18.029Z,1.40
2023-04-02T23:33:44.827Z,1.40
2023-04-02T23:36:16.421Z,1.30
2023-04-02T23:38:43.237Z,1.40
2023-04-02T23:41:14.486Z,1.40
2023-04-02T23:43:41.306Z,1.30
2023-04-02T23:46:08.242Z,1.40
2023-04-02T23:48:34.959Z,1.40
2023-04-02T23:51:01.615Z,1.30
2023-04-02T23:53:28.273Z,1.30
2023-04-02T23:55:54.927Z,1.30
2023-04-02T23:58:21.633Z,1.30
